Jerusalem, Rhode Island
Current Conditions -  °F | °C
As of 8:53 PM on Monday 22 Dec 2014 (Local Time) from KWST Reporting Station
Overcast Overcast  
Wind Chill: 40°   Ceiling: 1700
Heat Index: 45°   Visibility: 10mi
Dew Point: 40°   Wind: 9mph
Humidity: 82%   Direction: 90°E
Pressure: 30.28"   Gusts: 18mph
Location:  41.4261°N, 71.5353°W
Report Text: KWST 230153Z AUTO 09008G16KT 10SM OVC017 07/04 A3028 RMK AO2 SLP252 T00720044
Loading
Personal Weather Stations






























Interactive Weather Map New forecast layout! Learn more

10-Day Weather Forecast

Advertisements
Track Severe Weather on mobile